Time;durP1;ratioP1;P1;durP2;ratioP2;P2;SDS_P1;SDS_P2;PMS_P1;PMS_P2;Temp;Humidity;BMP_temperature;BMP_pressure;BME280_temperature;BME280_humidity;BME280_pressure;Samples;Min_cycle;Max_cycle;Signal;HPM_P1;HPM_P2
2021/03/16 00:00:09;;;;;;;2.88;1.50;;;;;;;0.76;76.05;101064.81;5123820;28;20030;-74
2021/03/16 00:02:34;;;;;;;1.83;1.35;;;;;;;0.73;76.48;101070.59;5131568;28;20054;-73
2021/03/16 00:05:00;;;;;;;3.63;1.85;;;;;;;0.71;76.48;101073.47;5114523;28;20025;-74
2021/03/16 00:07:25;;;;;;;3.45;2.05;;;;;;;0.70;76.07;101076.34;5113051;28;20798;-74
2021/03/16 00:09:50;;;;;;;2.83;1.90;;;;;;;0.68;76.23;101078.41;5114395;28;20023;-74
2021/03/16 00:12:16;;;;;;;3.22;1.95;;;;;;;0.64;76.09;101072.63;5131528;28;20027;-74
2021/03/16 00:14:41;;;;;;;3.53;1.85;;;;;;;0.61;76.26;101073.84;5112909;28;20027;-74
2021/03/16 00:17:07;;;;;;;3.42;2.25;;;;;;;0.60;76.56;101076.72;5131487;28;20034;-74
2021/03/16 00:19:32;;;;;;;2.88;1.95;;;;;;;0.61;76.44;101083.75;5113948;28;20019;-74
2021/03/16 00:21:58;;;;;;;2.42;1.90;;;;;;;0.58;76.48;101089.53;5131712;28;20019;-74
2021/03/16 00:24:24;;;;;;;1.95;1.55;;;;;;;0.54;76.34;101089.09;5107572;28;20019;-74
2021/03/16 00:26:49;;;;;;;4.10;2.00;;;;;;;0.53;76.51;101086.63;5131596;28;20504;-73
2021/03/16 00:29:14;;;;;;;4.63;2.22;;;;;;;0.51;76.23;101088.66;5131226;27;20031;-74
2021/03/16 00:31:40;;;;;;;3.58;2.20;;;;;;;0.51;76.32;101091.34;5113972;28;20011;-74
2021/03/16 00:34:05;;;;;;;5.18;2.05;;;;;;;0.50;76.40;101098.56;5092884;28;20031;-73
2021/03/16 00:36:31;;;;;;;4.60;2.03;;;;;;;0.49;76.72;101096.94;5134471;27;20023;-74
2021/03/16 00:38:56;;;;;;;2.53;1.90;;;;;;;0.48;76.74;101095.25;5134795;27;20051;-74
2021/03/16 00:41:21;;;;;;;3.72;1.92;;;;;;;0.46;76.42;101105.34;5117699;27;20076;-74
2021/03/16 00:43:48;;;;;;;2.90;2.00;;;;;;;0.43;76.40;101109.25;5135085;27;20019;-73
2021/03/16 00:46:13;;;;;;;5.28;2.20;;;;;;;0.41;76.96;101110.50;5135518;27;20031;-74
2021/03/16 00:48:39;;;;;;;3.72;2.22;;;;;;;0.36;76.73;101108.41;5133557;27;20027;-73
2021/03/16 00:51:04;;;;;;;3.33;1.90;;;;;;;0.32;76.71;101111.69;5135994;27;20030;-73
2021/03/16 00:53:30;;;;;;;3.13;1.77;;;;;;;0.29;77.18;101112.09;5116807;27;20456;-74
2021/03/16 00:55:55;;;;;;;3.85;2.17;;;;;;;0.27;76.79;101114.94;5133235;27;20034;-74
2021/03/16 00:58:27;;;;;;;2.78;1.65;;;;;;;0.26;77.34;101112.47;5099418;27;20053;-74
2021/03/16 01:00:53;;;;;;;2.63;1.65;;;;;;;0.25;76.97;101119.69;5117254;27;20441;-74
2021/03/16 01:03:18;;;;;;;2.83;1.83;;;;;;;0.24;77.10;101119.88;5131638;27;20067;-74
2021/03/16 01:05:44;;;;;;;1.92;1.50;;;;;;;0.24;77.05;101120.72;5134937;27;20030;-74
2021/03/16 01:08:09;;;;;;;2.75;1.65;;;;;;;0.25;77.16;101116.19;5116353;27;20038;-74
2021/03/16 01:10:35;;;;;;;3.10;1.88;;;;;;;0.27;77.27;101117.63;5100308;27;20453;-73
2021/03/16 01:13:01;;;;;;;4.10;2.05;;;;;;;0.28;77.02;101123.84;5116047;27;20054;-73
2021/03/16 01:15:26;;;;;;;3.50;1.98;;;;;;;0.28;76.95;101123.84;5135159;27;20027;-74
2021/03/16 01:17:52;;;;;;;2.67;1.92;;;;;;;0.29;77.05;101122.81;5132622;27;20164;-74
2021/03/16 01:20:20;;;;;;;3.13;1.75;;;;;;;0.29;77.16;101123.63;5117074;27;20027;-73
2021/03/16 01:22:46;;;;;;;3.55;2.00;;;;;;;0.29;76.97;101128.16;5098807;27;20110;-74
2021/03/16 01:25:11;;;;;;;4.03;1.92;;;;;;;0.28;77.04;101121.97;5077834;28;20126;-74
2021/03/16 01:27:37;;;;;;;2.75;1.80;;;;;;;0.29;77.35;101128.16;5109122;27;20054;-73
2021/03/16 01:30:04;;;;;;;2.28;1.88;;;;;;;0.27;76.99;101125.66;5116705;27;20031;-74
2021/03/16 01:32:29;;;;;;;2.97;1.92;;;;;;;0.24;77.11;101130.59;5134219;27;20023;-74
2021/03/16 01:34:55;;;;;;;3.55;2.05;;;;;;;0.19;77.49;101134.72;5114427;27;20064;-74
2021/03/16 01:37:20;;;;;;;2.83;2.05;;;;;;;0.15;77.43;101133.44;5134379;27;20023;-74
2021/03/16 01:39:48;;;;;;;3.22;2.17;;;;;;;0.12;77.70;101143.75;5116055;27;20084;-74
2021/03/16 01:42:13;;;;;;;5.75;2.10;;;;;;;0.09;77.53;101144.13;5116266;27;20422;-74
2021/03/16 01:44:42;;;;;;;4.32;1.83;;;;;;;0.09;77.67;101144.13;5086836;27;20030;-74
2021/03/16 01:47:08;;;;;;;5.57;2.65;;;;;;;0.09;77.37;101149.50;5101564;27;20039;-74
2021/03/16 01:49:34;;;;;;;5.47;2.70;;;;;;;0.06;77.46;101150.72;5114402;27;20034;-74
2021/03/16 01:52:02;;;;;;;4.15;1.90;;;;;;;0.02;77.43;101145.94;5114965;27;20034;-74
2021/03/16 01:54:27;;;;;;;7.57;2.22;;;;;;;0.00;77.83;101148.81;5115392;27;20055;-73
2021/03/16 01:56:53;;;;;;;2.97;1.88;;;;;;;-0.03;77.24;101155.41;5116309;27;20480;-75
2021/03/16 01:59:18;;;;;;;3.97;1.90;;;;;;;-0.08;77.27;101155.16;5104346;27;20034;-75
2021/03/16 02:01:44;;;;;;;5.05;1.75;;;;;;;-0.11;77.48;101150.19;5134555;27;20039;-74
2021/03/16 02:04:11;;;;;;;3.03;1.77;;;;;;;-0.14;77.72;101150.53;5114128;27;20084;-73
2021/03/16 02:06:44;;;;;;;5.18;2.65;;;;;;;-0.17;77.59;101144.75;5095319;28;20044;-74
2021/03/16 02:09:14;;;;;;;4.65;2.20;;;;;;;-0.18;77.85;101149.28;5094684;27;20035;-73
2021/03/16 02:11:48;;;;;;;5.25;2.20;;;;;;;-0.21;77.46;101155.03;5116685;27;20019;-73
2021/03/16 02:14:33;;;;;;;3.75;2.25;;;;;;;-0.20;77.63;101159.38;5098562;27;20023;-73
2021/03/16 02:17:00;;;;;;;3.47;2.10;;;;;;;-0.26;78.02;101160.97;5115925;27;20027;-74
2021/03/16 02:19:30;;;;;;;4.70;1.90;;;;;;;-0.31;77.51;101159.91;5114662;27;20082;-74
2021/03/16 02:21:55;;;;;;;2.85;1.80;;;;;;;-0.34;77.61;101161.09;5132994;27;20027;-73
2021/03/16 02:24:37;;;;;;;2.78;1.77;;;;;;;-0.37;77.87;101158.00;5097853;27;20034;-73
2021/03/16 02:27:14;;;;;;;2.92;1.70;;;;;;;-0.40;77.80;101164.56;5085504;28;20438;-73
2021/03/16 02:29:50;;;;;;;3.42;1.85;;;;;;;-0.45;78.02;101167.81;5128530;27;20476;-73
2021/03/16 02:32:19;;;;;;;3.10;2.13;;;;;;;-0.51;77.67;101173.13;5116741;27;20041;-74
2021/03/16 02:34:47;;;;;;;4.57;2.22;;;;;;;-0.53;77.87;101180.50;5096374;27;20030;-73
2021/03/16 02:37:13;;;;;;;7.40;2.22;;;;;;;-0.48;77.74;101186.94;5095115;28;20046;-73
2021/03/16 02:39:38;;;;;;;3.38;2.30;;;;;;;-0.46;78.24;101187.59;5079000;27;20023;-73
2021/03/16 02:42:04;;;;;;;3.42;2.22;;;;;;;-0.47;78.06;101182.41;5095071;28;20457;-73
2021/03/16 02:44:30;;;;;;;3.65;2.15;;;;;;;-0.47;78.08;101177.06;5089042;28;20027;-73
2021/03/16 02:46:55;;;;;;;4.43;2.50;;;;;;;-0.48;78.33;101186.94;5114772;27;20126;-73
2021/03/16 02:49:21;;;;;;;49.03;16.25;;;;;;;-0.49;78.44;101182.63;5114323;27;20027;-73
2021/03/16 02:51:46;;;;;;;5.68;3.08;;;;;;;-0.51;78.53;101176.63;5112980;27;20038;-73
2021/03/16 02:54:11;;;;;;;5.45;2.22;;;;;;;-0.54;78.27;101170.81;5094572;27;20028;-73
2021/03/16 02:56:37;;;;;;;3.10;1.90;;;;;;;-0.57;78.66;101180.06;5081207;27;20461;-74
2021/03/16 02:59:09;;;;;;;3.30;2.00;;;;;;;-0.58;78.40;101181.06;5132086;27;20061;-73
2021/03/16 03:01:35;;;;;;;;;;;;;;;-0.60;78.35;101172.41;5114779;27;20019;-73
2021/03/16 03:04:01;;;;;;;3.90;1.92;;;;;;;-0.64;78.35;101181.84;5094188;27;19927;-73
2021/03/16 03:06:26;;;;;;;4.35;2.20;;;;;;;-0.67;78.33;101184.91;5093445;28;20043;-73
2021/03/16 03:08:52;;;;;;;3.72;2.17;;;;;;;-0.72;78.40;101196.16;5087035;28;20023;-74
2021/03/16 03:11:17;;;;;;;7.63;2.33;;;;;;;-0.74;78.54;101197.38;5114774;27;20027;-73
2021/03/16 03:13:43;;;;;;;2.90;2.03;;;;;;;-0.79;78.56;101202.47;5132197;27;20023;-73
2021/03/16 03:16:08;;;;;;;3.97;2.40;;;;;;;-0.84;78.56;101203.03;5114732;27;20019;-73
2021/03/16 03:18:34;;;;;;;3.70;2.05;;;;;;;-0.87;78.78;101207.91;5132173;27;20023;-73
2021/03/16 03:21:02;;;;;;;5.75;2.60;;;;;;;-0.90;78.66;101211.84;5131715;27;20102;-73
2021/03/16 03:23:29;;;;;;;6.72;3.03;;;;;;;-0.92;78.83;101214.69;5114013;28;20023;-73
2021/03/16 03:26:44;;;;;;;4.35;2.85;;;;;;;-0.94;78.87;101219.38;5132746;27;20019;-73
2021/03/16 03:29:10;;;;;;;5.80;3.08;;;;;;;-0.94;78.84;101219.38;5119282;27;20069;-73
2021/03/16 03:31:36;;;;;;;6.45;3.45;;;;;;;-0.94;78.92;101232.78;5114417;28;20052;-73
2021/03/16 03:34:02;;;;;;;5.43;2.95;;;;;;;-0.95;79.05;101230.28;5112925;28;20023;-73
2021/03/16 03:36:27;;;;;;;5.65;3.42;;;;;;;-0.97;79.04;101227.78;5114232;28;20072;-73
2021/03/16 03:38:53;;;;;;;5.25;3.58;;;;;;;-0.98;78.88;101228.00;5092511;28;20023;-73
2021/03/16 03:41:18;;;;;;;5.47;3.67;;;;;;;-1.02;78.90;101238.22;5108654;28;20076;-73
2021/03/16 03:43:43;;;;;;;5.43;3.35;;;;;;;-1.05;79.19;101235.94;5096525;28;20080;-73
2021/03/16 03:46:09;;;;;;;8.93;3.15;;;;;;;-1.08;78.93;101246.19;5092737;28;20501;-74
2021/03/16 03:48:34;;;;;;;5.95;3.58;;;;;;;-1.12;79.53;101238.53;5097372;28;20028;-74
2021/03/16 03:51:00;;;;;;;7.55;3.70;;;;;;;-1.09;79.00;101242.69;5087471;28;20023;-73
2021/03/16 03:53:25;;;;;;;6.90;3.60;;;;;;;-1.07;79.37;101245.97;5112962;28;20027;-74
2021/03/16 03:55:51;;;;;;;8.48;4.47;;;;;;;-1.07;79.24;101251.31;5093629;28;20035;-74
2021/03/16 03:58:16;;;;;;;6.63;3.50;;;;;;;-1.08;79.31;101252.34;5085916;28;20019;-74
2021/03/16 04:00:42;;;;;;;11.13;4.22;;;;;;;-1.06;79.44;101253.00;5096575;28;20351;-73
2021/03/16 04:03:07;;;;;;;6.68;4.05;;;;;;;-1.01;79.27;101252.44;5132838;28;20125;-74
2021/03/16 04:05:32;;;;;;;6.95;4.03;;;;;;;-0.99;79.33;101250.41;5113242;28;20487;-74
2021/03/16 04:07:58;;;;;;;8.43;4.00;;;;;;;-0.99;79.38;101248.56;5114055;28;20023;-74
2021/03/16 04:10:24;;;;;;;7.25;3.78;;;;;;;-0.99;79.57;101256.59;5108659;27;20035;-74
2021/03/16 04:12:50;;;;;;;7.05;4.32;;;;;;;-1.02;79.44;101258.81;5135677;27;20392;-74
2021/03/16 04:15:16;;;;;;;7.30;4.00;;;;;;;-1.04;79.67;101258.16;5110626;27;20058;-74
2021/03/16 04:17:44;;;;;;;9.48;4.25;;;;;;;-1.07;79.89;101262.03;5131010;27;20049;-73
2021/03/16 04:20:10;;;;;;;7.82;3.78;;;;;;;-1.13;79.45;101263.59;5117370;27;20396;-74
2021/03/16 04:22:36;;;;;;;5.35;3.13;;;;;;;-1.16;79.75;101268.50;5117966;27;20533;-75
2021/03/16 04:25:01;;;;;;;8.13;3.75;;;;;;;-1.18;79.84;101266.00;5116731;27;20052;-74
2021/03/16 04:27:27;;;;;;;6.78;4.00;;;;;;;-1.22;79.68;101271.94;5118080;27;20630;-74
2021/03/16 04:29:52;;;;;;;9.60;3.15;;;;;;;-1.27;79.72;101268.97;5116980;27;20050;-75
2021/03/16 04:32:18;;;;;;;6.53;3.58;;;;;;;-1.31;79.69;101270.34;5117665;27;20336;-74
2021/03/16 04:34:43;;;;;;;6.40;3.45;;;;;;;-1.31;79.76;101275.69;5134005;27;20463;-74
2021/03/16 04:37:09;;;;;;;7.55;4.03;;;;;;;-1.29;80.02;101273.66;5136270;27;20103;-75
2021/03/16 04:39:34;;;;;;;5.57;3.72;;;;;;;-1.27;80.09;101277.00;5107153;28;20495;-76
2021/03/16 04:42:00;;;;;;;11.65;4.55;;;;;;;-1.26;79.99;101278.63;5117411;27;20394;-75
2021/03/16 04:44:25;;;;;;;10.77;4.60;;;;;;;-1.27;80.02;101277.00;5116085;27;20038;-75
2021/03/16 04:46:50;;;;;;;9.60;4.60;;;;;;;-1.28;80.25;101276.16;5099051;27;20035;-74
2021/03/16 04:49:16;;;;;;;8.32;4.47;;;;;;;-1.27;80.13;101280.50;5119455;27;20046;-75
2021/03/16 04:51:41;;;;;;;7.72;4.43;;;;;;;-1.25;79.94;101288.34;5135305;27;20023;-75
2021/03/16 04:54:07;;;;;;;8.73;4.30;;;;;;;-1.23;79.94;101288.97;5114754;27;20034;-75
2021/03/16 04:56:33;;;;;;;9.70;4.50;;;;;;;-1.24;80.29;101290.00;5134790;27;20464;-76
2021/03/16 04:58:58;;;;;;;11.52;4.70;;;;;;;-1.27;80.15;101293.88;5091505;27;20019;-74
2021/03/16 05:01:24;;;;;;;7.35;4.20;;;;;;;-1.27;80.36;101298.38;5135252;27;20026;-75
2021/03/16 05:03:50;;;;;;;11.70;3.97;;;;;;;-1.27;80.21;101293.03;5108894;27;20038;-74
2021/03/16 05:06:15;;;;;;;8.55;3.95;;;;;;;-1.28;80.43;101304.72;5133803;27;20027;-75
2021/03/16 05:08:40;;;;;;;9.82;4.20;;;;;;;-1.30;80.49;101309.47;5105361;27;20022;-75
2021/03/16 05:11:06;;;;;;;8.88;3.63;;;;;;;-1.30;80.47;101299.59;5135595;27;20451;-75
2021/03/16 05:13:31;;;;;;;8.32;4.50;;;;;;;-1.30;80.58;101309.47;5134222;27;20023;-75
2021/03/16 05:15:57;;;;;;;7.22;4.45;;;;;;;-1.32;80.73;101308.81;5114602;27;20330;-75
2021/03/16 05:18:22;;;;;;;7.47;4.03;;;;;;;-1.33;80.54;101305.31;5116783;27;20080;-76
2021/03/16 05:20:47;;;;;;;11.73;4.45;;;;;;;-1.33;80.36;101307.97;5127896;27;20077;-75
2021/03/16 05:23:13;;;;;;;9.15;4.20;;;;;;;-1.33;80.61;101309.81;5128941;27;20031;-75
2021/03/16 05:25:38;;;;;;;7.32;4.22;;;;;;;-1.35;80.48;101318.84;5132399;27;20015;-75
2021/03/16 05:28:04;;;;;;;9.65;4.57;;;;;;;-1.35;80.43;101312.66;5116196;27;20015;-75
2021/03/16 05:30:29;;;;;;;6.78;3.47;;;;;;;-1.36;80.54;101311.84;5128946;27;20718;-76
2021/03/16 05:32:56;;;;;;;8.80;4.05;;;;;;;-1.35;80.46;101313.50;5111752;27;20100;-75
2021/03/16 05:35:22;;;;;;;7.32;4.40;;;;;;;-1.33;80.71;101315.19;5134157;27;20029;-75
2021/03/16 05:37:47;;;;;;;6.05;3.78;;;;;;;-1.34;80.88;101317.00;5111226;27;20027;-76
2021/03/16 05:40:13;;;;;;;7.50;4.07;;;;;;;-1.31;80.93;101318.47;5131541;27;20064;-75
2021/03/16 05:42:39;;;;;;;6.57;3.67;;;;;;;-1.28;80.76;101320.78;5129200;27;20030;-75
2021/03/16 05:45:05;;;;;;;8.68;3.95;;;;;;;-1.25;81.09;101323.13;5112846;27;20019;-75
2021/03/16 05:47:30;;;;;;;7.50;4.15;;;;;;;-1.22;80.68;101325.44;5115758;27;20043;-75
2021/03/16 05:49:56;;;;;;;5.85;3.55;;;;;;;-1.18;80.99;101324.03;5115312;27;20030;-75
2021/03/16 05:52:22;;;;;;;5.80;3.30;;;;;;;-1.14;81.00;101322.66;5099442;27;20023;-75
2021/03/16 05:54:47;;;;;;;5.35;2.97;;;;;;;-1.10;80.49;101331.97;5125838;27;20028;-75
2021/03/16 05:57:13;;;;;;;6.97;3.20;;;;;;;-1.08;80.90;101332.63;5092908;27;20034;-75
2021/03/16 05:59:38;;;;;;;5.18;2.85;;;;;;;-1.04;81.03;101331.22;5098168;27;20466;-75
2021/03/16 06:02:03;;;;;;;6.18;2.88;;;;;;;-0.98;80.93;101335.88;5134564;27;20035;-75
2021/03/16 06:04:29;;;;;;;5.82;3.17;;;;;;;-0.94;80.99;101342.50;5114986;27;20071;-75
2021/03/16 06:06:57;;;;;;;5.43;3.08;;;;;;;-0.91;80.98;101342.13;5134643;27;20068;-76
2021/03/16 06:09:23;;;;;;;7.10;3.22;;;;;;;-0.85;80.93;101345.09;5115050;27;20034;-75
2021/03/16 06:11:48;;;;;;;7.75;3.60;;;;;;;-0.81;80.95;101344.53;5096572;27;20031;-75
2021/03/16 06:14:14;;;;;;;6.82;3.10;;;;;;;-0.75;80.87;101346.47;5114793;27;20110;-75
2021/03/16 06:16:39;;;;;;;7.32;2.85;;;;;;;-0.69;81.07;101356.44;5134126;27;20026;-75
2021/03/16 06:19:05;;;;;;;4.78;2.92;;;;;;;-0.64;80.91;101363.91;5132717;27;20026;-75
2021/03/16 06:21:30;;;;;;;5.20;3.70;;;;;;;-0.58;80.48;101352.47;5106849;27;20032;-76
2021/03/16 06:24:00;;;;;;;4.57;3.08;;;;;;;-0.54;81.08;101353.75;5134117;27;20027;-75
2021/03/16 06:26:30;;;;;;;5.28;3.28;;;;;;;-0.50;81.24;101355.03;5114656;27;20539;-76
2021/03/16 06:29:10;;;;;;;4.03;2.75;;;;;;;-0.45;81.19;101352.63;5115977;27;20023;-75
2021/03/16 06:31:36;;;;;;;6.00;3.03;;;;;;;-0.39;80.98;101356.41;5105481;27;20075;-77
2021/03/16 06:34:02;;;;;;;6.10;3.22;;;;;;;-0.37;80.88;101353.56;5112021;27;20446;-75
2021/03/16 06:36:28;;;;;;;4.75;3.42;;;;;;;-0.32;81.23;101361.84;5133462;27;20505;-75
2021/03/16 06:38:54;;;;;;;4.53;3.35;;;;;;;-0.30;81.28;101366.00;5111489;27;20073;-75
2021/03/16 06:41:20;;;;;;;6.53;3.47;;;;;;;-0.27;81.21;101364.81;5113055;27;20023;-75
2021/03/16 06:44:02;;;;;;;5.45;3.22;;;;;;;-0.22;81.20;101367.72;5115748;27;20038;-75
2021/03/16 06:46:38;;;;;;;4.65;2.83;;;;;;;-0.16;80.98;101369.69;5111683;27;20035;-75
2021/03/16 06:49:23;;;;;;;4.65;3.13;;;;;;;-0.12;81.18;101375.47;5115349;27;20019;-76
2021/03/16 06:51:49;;;;;;;4.10;2.20;;;;;;;-0.08;81.44;101374.09;5113435;27;20015;-75
2021/03/16 06:54:15;;;;;;;5.13;2.53;;;;;;;-0.07;80.78;101381.94;5111595;27;20480;-75
2021/03/16 06:56:40;;;;;;;4.10;2.47;;;;;;;-0.04;81.19;101376.19;5127577;27;20479;-76
2021/03/16 06:59:06;;;;;;;4.03;2.40;;;;;;;0.02;81.68;101377.28;5114746;27;20102;-76
2021/03/16 07:01:32;;;;;;;5.80;2.90;;;;;;;0.06;80.90;101386.63;5093820;27;20449;-75
2021/03/16 07:03:59;;;;;;;4.35;2.35;;;;;;;0.09;81.00;101382.72;5091776;27;20030;-76
2021/03/16 07:06:24;;;;;;;4.45;2.70;;;;;;;0.13;81.16;101389.34;5093024;28;20055;-76
2021/03/16 07:08:50;;;;;;;6.10;2.88;;;;;;;0.17;81.20;101388.81;5102894;27;20087;-76
2021/03/16 07:11:17;;;;;;;3.08;2.25;;;;;;;0.21;80.94;101386.56;5130330;27;20022;-76
2021/03/16 07:13:42;;;;;;;3.83;2.70;;;;;;;0.25;81.13;101395.91;5114952;27;20050;-75
2021/03/16 07:16:09;;;;;;;3.33;2.33;;;;;;;0.27;81.23;101396.50;5114018;27;20472;-76
2021/03/16 07:18:35;;;;;;;7.68;3.13;;;;;;;0.28;81.27;101394.69;5114931;27;20429;-76
2021/03/16 07:21:16;;;;;;;4.40;2.78;;;;;;;0.29;80.95;101397.16;5112660;27;20057;-76
2021/03/16 07:23:48;;;;;;;4.15;2.97;;;;;;;0.28;80.92;101395.50;5113267;28;20027;-75
2021/03/16 07:26:14;;;;;;;;;;;;;;;0.29;80.82;101402.53;5132172;27;20034;-75
2021/03/16 07:28:39;;;;;;;5.00;2.30;;;;;;;0.29;80.78;101410.56;5132496;27;19998;-77
2021/03/16 07:31:05;;;;;;;4.30;2.75;;;;;;;0.28;80.99;101411.59;5080309;28;20379;-76
2021/03/16 07:33:30;;;;;;;10.57;2.60;;;;;;;0.28;81.14;101411.59;5114249;27;20023;-76
2021/03/16 07:35:56;;;;;;;5.55;2.80;;;;;;;0.32;80.75;101418.22;5113330;27;20035;-75
2021/03/16 07:38:22;;;;;;;6.40;2.83;;;;;;;0.35;81.01;101423.22;5095096;28;20502;-76
2021/03/16 07:40:48;;;;;;;4.88;2.65;;;;;;;0.38;81.17;101425.53;5131023;27;20460;-75
2021/03/16 07:43:13;;;;;;;4.05;2.55;;;;;;;0.44;80.64;101430.13;5114502;28;20035;-74
2021/03/16 07:45:39;;;;;;;3.28;2.20;;;;;;;0.52;81.01;101433.69;5134810;27;20031;-75
2021/03/16 07:48:18;;;;;;;5.00;2.30;;;;;;;0.59;81.24;101437.28;5102120;27;20110;-75
2021/03/16 07:50:43;;;;;;;5.05;2.05;;;;;;;0.64;80.78;101448.28;5134185;27;20027;-75
2021/03/16 07:53:08;;;;;;;4.25;2.00;;;;;;;0.72;81.06;101444.63;5117497;27;20494;-75
2021/03/16 07:55:34;;;;;;;3.20;1.65;;;;;;;0.82;80.97;101442.47;5099779;27;20440;-75
2021/03/16 07:58:12;;;;;;;2.92;2.08;;;;;;;0.95;80.70;101444.41;5113837;28;20384;-75
2021/03/16 08:00:38;;;;;;;4.18;1.90;;;;;;;1.02;80.37;101439.94;5111720;27;20033;-74
2021/03/16 08:03:06;;;;;;;5.50;1.92;;;;;;;1.16;80.52;101447.06;5133314;27;20033;-75
2021/03/16 08:05:41;;;;;;;3.05;2.00;;;;;;;1.32;80.82;101454.81;5128067;27;20026;-74
2021/03/16 08:08:16;;;;;;;4.10;2.17;;;;;;;1.46;79.75;101450.38;5121509;27;20492;-74
2021/03/16 08:10:42;;;;;;;5.30;2.35;;;;;;;1.59;80.03;101455.00;5116134;27;20070;-74
2021/03/16 08:13:12;;;;;;;5.00;2.60;;;;;;;1.74;79.90;101450.31;5118492;27;20029;-75
2021/03/16 08:15:41;;;;;;;3.65;2.70;;;;;;;1.90;79.74;101459.06;5117118;27;20023;-75
2021/03/16 08:18:07;;;;;;;6.05;2.25;;;;;;;2.05;79.87;101467.84;5134386;27;20022;-75
2021/03/16 08:20:32;;;;;;;4.03;2.53;;;;;;;2.15;79.11;101462.06;5115942;27;20050;-76
2021/03/16 08:23:13;;;;;;;2.78;2.03;;;;;;;2.25;79.78;101467.09;5136304;27;20128;-75
2021/03/16 08:25:46;;;;;;;4.55;2.45;;;;;;;2.39;79.45;101466.09;5118155;27;20015;-75
2021/03/16 08:28:15;;;;;;;4.95;2.50;;;;;;;2.52;79.48;101465.31;5102677;27;20499;-75
2021/03/16 08:30:40;;;;;;;6.00;2.58;;;;;;;2.63;79.28;101476.28;5135707;27;20035;-75
2021/03/16 08:33:10;;;;;;;2.40;1.80;;;;;;;2.73;79.35;101469.66;5099993;27;20537;-74
2021/03/16 08:35:37;;;;;;;3.55;2.15;;;;;;;2.81;79.14;101477.56;5134802;27;20027;-75
2021/03/16 08:38:02;;;;;;;3.03;2.25;;;;;;;2.91;79.02;101477.97;5116670;27;20024;-75
2021/03/16 08:40:28;;;;;;;4.60;2.22;;;;;;;2.96;79.02;101475.50;5134256;27;20388;-74
2021/03/16 08:42:54;;;;;;;3.67;2.00;;;;;;;3.00;78.82;101482.16;5117402;27;20039;-74
2021/03/16 08:45:30;;;;;;;3.58;2.30;;;;;;;3.04;78.88;101480.69;5111675;27;20023;-75
2021/03/16 08:47:55;;;;;;;4.05;2.05;;;;;;;3.10;78.96;101490.63;5117541;27;20069;-75
2021/03/16 08:50:24;;;;;;;4.25;1.95;;;;;;;3.19;78.50;101493.97;5116574;27;20071;-75
2021/03/16 08:52:50;;;;;;;5.22;2.92;;;;;;;3.22;78.30;101496.25;5117000;27;20023;-74
2021/03/16 08:55:25;;;;;;;7.53;2.75;;;;;;;3.24;78.03;101490.63;5115074;27;20051;-75
2021/03/16 08:57:51;;;;;;;4.13;2.78;;;;;;;3.26;78.22;101491.25;5130934;27;20034;-75
2021/03/16 09:00:17;;;;;;;4.50;2.45;;;;;;;3.21;78.63;101499.13;5130597;27;20072;-75
2021/03/16 09:02:42;;;;;;;3.95;2.35;;;;;;;3.17;77.92;101497.91;5096808;27;20027;-74
2021/03/16 09:05:25;;;;;;;4.97;2.17;;;;;;;3.14;77.92;101503.69;5133786;27;20023;-75
2021/03/16 09:08:01;;;;;;;3.35;2.45;;;;;;;3.13;78.21;101502.03;5100519;27;20042;-74
2021/03/16 09:10:27;;;;;;;6.72;2.20;;;;;;;3.13;78.52;101502.03;5113967;27;20059;-75
2021/03/16 09:12:52;;;;;;;6.13;2.30;;;;;;;3.13;78.42;101502.03;5101512;27;20077;-74
2021/03/16 09:15:22;;;;;;;4.85;2.35;;;;;;;3.16;77.73;101501.63;5115833;27;20019;-75
2021/03/16 09:17:49;;;;;;;4.00;2.35;;;;;;;3.17;78.25;101514.06;5101350;27;20032;-75
2021/03/16 09:20:35;;;;;;;5.88;2.38;;;;;;;3.19;77.90;101520.06;5116112;27;20023;-75
2021/03/16 09:23:07;;;;;;;4.05;2.25;;;;;;;3.20;77.65;101516.34;5127997;27;20035;-75
2021/03/16 09:25:34;;;;;;;;;;;;;;;3.16;78.03;101515.91;5105763;28;20492;-75
2021/03/16 09:28:00;;;;;;;4.53;2.42;;;;;;;3.13;78.14;101512.81;5105451;28;20390;-74
2021/03/16 09:30:28;;;;;;;2.65;1.90;;;;;;;3.14;77.76;101525.25;5114117;27;20027;-74
2021/03/16 09:32:53;;;;;;;2.47;2.00;;;;;;;3.13;78.05;101529.81;5100160;27;20526;-74
2021/03/16 09:35:19;;;;;;;3.63;1.75;;;;;;;3.14;77.57;101530.63;5082486;27;20023;-75
2021/03/16 09:37:47;;;;;;;4.18;2.03;;;;;;;3.14;77.77;101531.47;5134938;27;20054;-75
2021/03/16 09:40:13;;;;;;;3.15;1.55;;;;;;;3.18;78.08;101527.31;5115477;27;20443;-75
2021/03/16 09:42:43;;;;;;;6.32;1.85;;;;;;;3.21;77.78;101540.38;5099650;27;20108;-74
2021/03/16 09:45:22;;;;;;;3.92;1.58;;;;;;;3.23;77.50;101545.56;5114833;27;20045;-72
2021/03/16 09:47:48;;;;;;;1.98;1.63;;;;;;;3.25;77.71;101541.63;5108321;27;20564;-72
2021/03/16 09:50:21;;;;;;;3.05;1.60;;;;;;;3.27;77.27;101549.50;5112825;27;20118;-73
2021/03/16 09:52:47;;;;;;;2.65;1.60;;;;;;;3.31;77.70;101553.47;5115685;27;20457;-73
2021/03/16 09:55:13;;;;;;;3.45;1.83;;;;;;;3.35;77.17;101543.91;5114090;27;20072;-72
2021/03/16 09:57:39;;;;;;;2.53;1.55;;;;;;;3.40;77.50;101549.50;5090499;28;20407;-73
2021/03/16 10:00:09;;;;;;;3.13;1.60;;;;;;;3.47;77.29;101541.44;5127810;27;20015;-73
2021/03/16 10:02:36;;;;;;;4.05;1.75;;;;;;;3.55;77.26;101552.84;5112938;27;20015;-72
2021/03/16 10:05:06;;;;;;;2.88;1.55;;;;;;;3.64;77.18;101556.13;5098206;27;20045;-72
2021/03/16 10:07:32;;;;;;;3.95;1.70;;;;;;;3.71;77.36;101556.13;5112278;28;20114;-73
2021/03/16 10:10:17;;;;;;;3.67;1.55;;;;;;;3.74;77.12;101558.44;5111543;27;20184;-73
2021/03/16 10:12:58;;;;;;;3.88;1.65;;;;;;;3.80;76.88;101554.88;5113125;27;20023;-73
2021/03/16 10:15:37;;;;;;;4.37;1.93;;;;;;;3.80;76.92;101552.19;5132795;27;20478;-73
2021/03/16 10:18:05;;;;;;;5.78;1.90;;;;;;;3.76;77.11;101561.72;5133727;27;20068;-73
2021/03/16 10:20:34;;;;;;;3.78;1.95;;;;;;;3.74;77.03;101551.16;5131237;27;20019;-73
2021/03/16 10:23:02;;;;;;;2.78;1.80;;;;;;;3.77;76.79;101552.59;5098773;27;20022;-73
2021/03/16 10:25:29;;;;;;;4.65;1.90;;;;;;;3.81;77.00;101556.53;5114277;27;20043;-73
2021/03/16 10:28:08;;;;;;;3.17;2.20;;;;;;;3.87;76.88;101561.06;5093989;27;20019;-73
2021/03/16 10:30:42;;;;;;;3.63;2.00;;;;;;;3.93;76.78;101559.44;5097522;27;20503;-73
2021/03/16 10:33:08;;;;;;;4.55;2.20;;;;;;;3.99;76.68;101555.88;5092678;28;20392;-73
2021/03/16 10:35:39;;;;;;;3.35;2.10;;;;;;;4.04;76.45;101557.94;5128082;27;20050;-75
2021/03/16 10:38:05;;;;;;;3.95;2.20;;;;;;;4.12;76.43;101560.41;5112802;27;20186;-74
2021/03/16 10:40:32;;;;;;;5.53;2.40;;;;;;;4.17;76.40;101560.59;5128587;27;20023;-74
2021/03/16 10:42:57;;;;;;;2.88;2.38;;;;;;;4.19;76.22;101567.44;5130640;27;20033;-74
2021/03/16 10:45:23;;;;;;;4.35;2.58;;;;;;;4.28;76.08;101562.63;5114866;27;20023;-75
2021/03/16 10:47:49;;;;;;;4.88;2.00;;;;;;;4.36;76.00;101567.78;5131818;27;20035;-74
2021/03/16 10:50:14;;;;;;;4.13;2.10;;;;;;;4.50;75.83;101567.75;5131675;27;20069;-75
2021/03/16 10:52:40;;;;;;;2.83;1.60;;;;;;;4.54;75.83;101572.50;5113711;27;20027;-75
2021/03/16 10:55:05;;;;;;;2.85;1.98;;;;;;;4.63;75.74;101567.69;5111394;27;20030;-74
2021/03/16 10:57:31;;;;;;;2.55;1.60;;;;;;;4.71;75.32;101572.84;5111619;27;20088;-75
2021/03/16 10:59:56;;;;;;;2.95;1.55;;;;;;;4.79;75.46;101567.19;5132880;27;20030;-74
2021/03/16 11:02:22;;;;;;;2.88;1.80;;;;;;;4.88;75.21;101568.63;5096275;27;20031;-75
2021/03/16 11:04:47;;;;;;;2.90;2.00;;;;;;;5.05;75.20;101557.28;5133098;27;20038;-75
2021/03/16 11:07:13;;;;;;;3.45;1.70;;;;;;;5.19;75.02;101566.97;5127120;27;20063;-75
2021/03/16 11:09:38;;;;;;;2.97;1.90;;;;;;;5.27;74.59;101564.00;5131034;27;20030;-75
2021/03/16 11:12:04;;;;;;;4.28;2.28;;;;;;;5.32;74.49;101558.75;5123296;27;20088;-75
2021/03/16 11:14:29;;;;;;;4.55;2.08;;;;;;;5.38;74.46;101558.94;5085563;27;20050;-75
2021/03/16 11:16:55;;;;;;;4.60;2.30;;;;;;;5.48;74.33;101561.94;5106879;27;20023;-75
2021/03/16 11:19:20;;;;;;;3.13;1.77;;;;;;;5.61;74.31;101566.41;5113149;27;20022;-75
2021/03/16 11:21:46;;;;;;;2.97;2.50;;;;;;;5.70;73.88;101570.50;5131593;27;20023;-75
2021/03/16 11:24:12;;;;;;;3.45;2.10;;;;;;;5.69;73.78;101566.13;5132474;27;20399;-74
2021/03/16 11:26:37;;;;;;;3.40;2.40;;;;;;;5.81;73.87;101572.50;5113788;27;20075;-75
2021/03/16 11:29:02;;;;;;;3.45;2.72;;;;;;;5.85;73.34;101567.47;5114419;27;20031;-74